This is the latest recevied weather packets stored in our database for station/object N8MFN. If no packets are shown the sender has not sent any weather packets the latest 10 day(s).
| Time | Temp. | Humidity | Pressure | Rain* | Wind** | Luminosity | Snow |
|---|---|---|---|---|---|---|---|
| 1777594217 | 15° C | 62% | - | 0 mm | - | - | - |
| 1777589417 | 18.89° C | 60% | - | 5.33 mm | - | - | - |
| 1777587617 | 18.89° C | 59% | - | 9.91 mm | - | - | - |
| 1777587017 | 20° C | 59% | - | 4.57 mm | - | - | - |
| 1777582817 | 23.89° C | 59% | - | 0 mm | - | - | - |
| 1777576217 | 23.33° C | 58% | - | 0 mm | - | - | - |
| 1777575617 | 22.78° C | 61% | - | 0 mm | - | - | - |
| 1777575017 | 22.22° C | 61% | - | 0 mm | - | - | - |
| 1777571417 | 20° C | 66% | - | 0 mm | - | - | - |
| 1777563017 | 15° C | 75% | - | 0 mm | - | - | - |
| 1777562416 | 15.56° C | 76% | - | 0 mm | - | - | - |
| 1777561217 | 16.11° C | 77% | - | 0 mm | - | - | - |
| 1777559416 | 13.33° C | 79% | - | 0 mm | - | - | - |
| 1777555817 | 9.44° C | 83% | - | 0 mm | - | - | - |
| 1777548637 | 7.78° C | 83% | - | 0 mm | - | - | - |
| 1777544417 | 6.67° C | 83% | - | 0 mm | - | - | - |
| 1777540817 | 7.22° C | 82% | - | 0 mm | - | - | - |
| 1777540217 | 7.22° C | 82% | - | 0 mm | - | - | - |
| 1777539017 | 7.22° C | 82% | - | 0 mm | - | - | - |
| 1777536617 | 7.22° C | 81% | - | 0 mm | - | - | - |
| 1777534217 | 7.78° C | 81% | - | 0 mm | - | - | - |
| 1777531817 | 7.78° C | 80% | - | 0 mm | - | - | - |
| 1777531217 | 7.78° C | 80% | - | 0 mm | - | - | - |
| 1777530617 | 8.33° C | 79% | - | 0 mm | - | - | - |
| 1777528257 | 8.89° C | 78% | - | 0 mm | - | - | - |
* Rain latest hour (hover to see other rain measurements)
** Current wind speed in m/s (hover to see current wind gust speed)